Weather History for KMNH - October, 2012

Change the Weather History Date:

Tuesday, October 9, 2012

  Actual Average (KAPA) Record (KAPA)
Temperature  
Mean Temperature 39 °F -  
Max Temperature 48 °F 66 °F 82 °F (2003)
Min Temperature 30 °F 36 °F 28 °F (2000)
Degree Days  
Heating Degree Days 26    
Moisture  
Dew Point 26 °F    
Average Humidity 61    
Maximum Humidity 87    
Minimum Humidity 23    
Precipitation  
Precipitation 0.00 in - - ()
Sea Level Pressure  
Sea Level Pressure 30.09 in    
Wind  
Wind Speed 9 mph (North)    
Max Wind Speed 20 mph    
Max Gust Speed 25 mph    
Visibility 10 miles    
Events      
Averages and records for this station are not official NWS values.
T = Trace of Precipitation, MM = Missing Value Source: NWS Daily Summary

Daily Weather History Graph

Daily Weather History Graph

Search for Another Location

Airport or City:

Trip Planner

Search our weather history database for the weather conditions in past years. The results will help you decide how hot, cold, wet, or windy it might be!

Date:

Astronomy

Oct. 09, 2012 Rise Set
Actual Time 7:02 AM MDT 6:27 PM MDT
Civil Twilight 6:36 AM MDT 6:54 PM MDT
Nautical Twilight 6:04 AM MDT 7:25 PM MDT
Astronomical Twilight 5:33 AM MDT 7:56 PM MDT
Moon 12:44 AM MDT (10/9) 2:54 PM MDT (10/9)
Length of Visible Light 12h 18m
Length of Day
11h 25m
Last Quarter, 36% of the Moon is Illuminated
Oct 9
Last Quarter
Oct 15
New
Oct 21
First Quarter
Oct 29
Full
Nov 6
Last Quarter

Hourly Weather History & Observations

Time (MDT) Temp. Windchill Dew Point Humidity Pressure Visibility Wind Dir Wind Speed Gust Speed Precip Events Conditions
12:11 AM 39.2 °F 33.0 °F 8.6 °F 28% 29.98 in 10.0 mi WSW 9.2 mph - N/A   Clear
12:51 AM 42.8 °F 39.3 °F 6.8 °F 23% 29.97 in 10.0 mi SW 5.8 mph - N/A   Clear
1:01 AM 41.0 °F 37.1 °F 8.6 °F 26% 29.97 in 10.0 mi SW 5.8 mph - N/A   Clear
2:01 AM 46.4 °F 39.8 °F 12.2 °F 25% 29.97 in 10.0 mi West 16.1 mph - N/A   Clear
2:24 AM 46.4 °F 41.5 °F 10.4 °F 23% 29.97 in 10.0 mi WSW 10.4 mph - N/A   Clear
2:51 AM 46.4 °F 39.0 °F 12.2 °F 25% 29.97 in 10.0 mi West 19.6 mph 25.3 mph N/A   Clear
3:01 AM 46.4 °F 39.5 °F 12.2 °F 25% 29.97 in 10.0 mi WSW 17.3 mph - N/A   Clear
3:31 AM 44.6 °F 38.4 °F 12.2 °F 27% 29.98 in 10.0 mi WSW 12.7 mph - N/A   Clear
3:51 AM 42.8 °F 36.2 °F 14.0 °F 31% 29.97 in 10.0 mi WSW 12.7 mph - N/A   Clear
4:11 AM 42.8 °F 36.2 °F 14.0 °F 31% 29.98 in 10.0 mi WSW 12.7 mph - N/A   Clear
4:26 AM 42.8 °F 36.6 °F 14.0 °F 31% 29.98 in 10.0 mi WSW 11.5 mph - N/A   Clear
4:51 AM 41.0 °F 35.8 °F 14.0 °F 33% 29.99 in 10.0 mi WSW 8.1 mph - N/A   Clear
5:00 AM 41.0 °F 37.1 °F 14.0 °F 33% 29.99 in 10.0 mi West 5.8 mph - N/A   Clear
5:23 AM 41.0 °F 35.8 °F 14.0 °F 33% 30.00 in 10.0 mi West 8.1 mph - N/A   Clear
5:45 AM 37.4 °F 32.1 °F 15.8 °F 41% 30.00 in 10.0 mi West 6.9 mph - N/A   Clear
6:02 AM 37.4 °F 32.8 °F 17.6 °F 45% 30.00 in 10.0 mi West 5.8 mph - N/A   Clear
6:28 AM 37.4 °F 31.4 °F 15.8 °F 41% 30.01 in 10.0 mi NW 8.1 mph - N/A   Clear
6:44 AM 33.8 °F 26.4 °F 19.4 °F 56% 30.03 in 10.0 mi NW 9.2 mph - N/A   Clear
7:11 AM 32.0 °F 23.6 °F 19.4 °F 60% 30.03 in 10.0 mi WNW 10.4 mph - N/A   Clear
7:31 AM 30.2 °F 22.6 °F 21.2 °F 69% 30.03 in 10.0 mi West 8.1 mph - N/A   Clear
7:51 AM 33.8 °F 30.8 °F 23.0 °F 65% 30.05 in 10.0 mi West 3.5 mph - N/A   Clear
8:10 AM 35.6 °F 28.6 °F 23.0 °F 60% 30.04 in 10.0 mi West 9.2 mph - N/A   Clear
8:31 AM 37.4 °F 34.9 °F 24.8 °F 60% 30.05 in 10.0 mi North 3.5 mph - N/A   Clear
8:50 AM 37.4 °F 32.8 °F 26.6 °F 65% 30.07 in 10.0 mi North 5.8 mph - N/A   Clear
9:11 AM 39.2 °F 35.9 °F 26.6 °F 61% 30.07 in 10.0 mi NW 4.6 mph - N/A   Clear
9:29 AM 41.0 °F 37.1 °F 26.6 °F 57% 30.07 in 10.0 mi North 5.8 mph - N/A   Clear
9:51 AM 42.8 °F 41.1 °F 26.6 °F 53% 30.07 in 10.0 mi NW 3.5 mph - N/A   Clear
10:11 AM 42.8 °F 38.6 °F 28.4 °F 57% 30.07 in 10.0 mi NNW 6.9 mph - N/A   Clear
10:31 AM 44.6 °F 41.4 °F 28.4 °F 53% 30.07 in 10.0 mi NNE 5.8 mph - N/A   Clear
10:51 AM 46.4 °F 44.3 °F 28.4 °F 50% 30.07 in 10.0 mi NNE 4.6 mph - N/A   Clear
11:11 AM 46.4 °F 43.5 °F 26.6 °F 46% 30.07 in 10.0 mi North 5.8 mph - N/A   Clear
11:24 AM 46.4 °F 42.4 °F 28.4 °F 50% 30.07 in 10.0 mi NNE 8.1 mph - N/A   Clear
11:51 AM 46.4 °F 42.9 °F 30.2 °F 53% 30.07 in 10.0 mi NNE 6.9 mph - N/A   Clear
12:11 PM 48.2 °F - 32.0 °F 54% 30.07 in 10.0 mi NNE 8.1 mph - N/A   Clear
12:27 PM 48.2 °F - 32.0 °F 54% 30.08 in 10.0 mi NNE 9.2 mph - N/A   Clear
12:50 PM 46.4 °F 41.9 °F 32.0 °F 57% 30.07 in 10.0 mi NNE 9.2 mph - N/A   Clear
1:11 PM 48.2 °F - 32.0 °F 54% 30.07 in 10.0 mi NNE 6.9 mph - N/A   Clear
1:31 PM 48.2 °F - 32.0 °F 54% 30.07 in 10.0 mi NNE 5.8 mph - N/A   Clear
1:51 PM 48.2 °F - 32.0 °F 54% 30.07 in 10.0 mi North 8.1 mph - N/A   Clear
2:10 PM 48.2 °F - 32.0 °F 54% 30.07 in 10.0 mi NNE 8.1 mph - N/A   Clear
2:30 PM 48.2 °F - 32.0 °F 54% 30.08 in 10.0 mi NNE 4.6 mph - N/A   Clear
2:48 PM 46.4 °F 41.9 °F 32.0 °F 57% 30.09 in 10.0 mi NE 9.2 mph - N/A   Clear
3:11 PM 44.6 °F 39.7 °F 32.0 °F 61% 30.10 in 10.0 mi NE 9.2 mph - N/A   Clear
3:31 PM 42.8 °F 36.6 °F 32.0 °F 66% 30.11 in 10.0 mi NE 11.5 mph - N/A   Clear
3:51 PM 41.0 °F 34.7 °F 32.0 °F 70% 30.11 in 10.0 mi NE 10.4 mph 17.3 mph N/A   Clear
4:11 PM 41.0 °F 34.3 °F 32.0 °F 70% 30.12 in 10.0 mi ENE 11.5 mph 17.3 mph N/A   Clear
4:31 PM 39.2 °F 32.5 °F 32.0 °F 75% 30.13 in 10.0 mi ENE 10.4 mph - N/A   Mostly Cloudy
4:51 PM 37.4 °F 30.3 °F 32.0 °F 81% 30.15 in 10.0 mi NE 10.4 mph - N/A   Overcast
5:10 PM 35.6 °F 28.6 °F 32.0 °F 87% 30.15 in 10.0 mi NE 9.2 mph - N/A   Overcast
5:31 PM 35.6 °F 29.9 °F 32.0 °F 87% 30.15 in 10.0 mi NE 6.9 mph - N/A   Overcast
5:51 PM 35.6 °F 30.7 °F 32.0 °F 87% 30.16 in 10.0 mi ENE 5.8 mph - N/A   Overcast
6:11 PM 35.6 °F 30.7 °F 32.0 °F 87% 30.17 in 10.0 mi NE 5.8 mph - N/A   Overcast
6:31 PM 35.6 °F 31.7 °F 32.0 °F 87% 30.17 in 10.0 mi ENE 4.6 mph - N/A   Overcast
6:51 PM 35.6 °F 31.7 °F 32.0 °F 87% 30.18 in 10.0 mi East 4.6 mph - N/A   Overcast
7:06 PM 35.6 °F 31.7 °F 32.0 °F 87% 30.19 in 10.0 mi ESE 4.6 mph - N/A   Overcast
7:28 PM 35.6 °F 30.7 °F 32.0 °F 87% 30.20 in 10.0 mi SE 5.8 mph - N/A   Overcast
7:51 PM 35.6 °F 31.7 °F 32.0 °F 87% 30.21 in 10.0 mi SE 4.6 mph - N/A   Overcast
8:11 PM 35.6 °F 31.7 °F 32.0 °F 87% 30.21 in 10.0 mi SE 4.6 mph - N/A   Overcast
8:31 PM 35.6 °F 30.7 °F 32.0 °F 87% 30.21 in 10.0 mi SE 5.8 mph - N/A   Overcast
8:50 PM 35.6 °F 30.7 °F 32.0 °F 87% 30.22 in 7.0 mi SE 5.8 mph - N/A   Overcast
9:11 PM 35.6 °F 29.9 °F 32.0 °F 87% 30.22 in 7.0 mi SE 6.9 mph - N/A   Overcast
9:31 PM 35.6 °F 30.7 °F 32.0 °F 87% 30.23 in 10.0 mi SSE 5.8 mph - N/A   Overcast
9:51 PM 35.6 °F 29.9 °F 32.0 °F 87% 30.23 in 10.0 mi SE 6.9 mph - N/A   Overcast
10:11 PM 35.6 °F 29.9 °F 32.0 °F 87% 30.23 in 10.0 mi SSE 6.9 mph - N/A   Overcast
10:30 PM 35.6 °F 28.6 °F 32.0 °F 87% 30.23 in 10.0 mi South 9.2 mph - N/A   Overcast
10:51 PM 35.6 °F 26.6 °F 32.0 °F 87% 30.23 in 10.0 mi South 13.8 mph 18.4 mph N/A   Overcast
11:11 PM 35.6 °F 26.2 °F 32.0 °F 87% 30.22 in 10.0 mi South 15.0 mph - N/A   Overcast
11:31 PM 35.6 °F 26.6 °F 32.0 °F 87% 30.21 in 10.0 mi South 13.8 mph - N/A   Overcast
11:47 PM 35.6 °F 25.9 °F 32.0 °F 87% 30.21 in 10.0 mi South 16.1 mph - N/A   Overcast